Flight Track Log - Related Links

Times and Time Zones

All times are in EDT time to prevent confusion due to time zone crossing. See the AFR65 flight status page for this flight to view local times or setup timezone preferences in your user account.

Time Position Orientation Groundspeed Altitude Reporting Facility
EDT Latitude Longitude Course Direction KTS MPH feet Rate Location/Type
Sat 07:03:06 PM 33.9440 -118.4610 264° West 173 199 1,200  Level FlightAware ADS-B
Sat 07:03:16 PM 33.9440 -118.4680 270° West 176 203 1,300 1,548 Climbing FlightAware ADS-B
Sat 07:03:37 PM 33.9420 -118.4960 265° West 190 219 2,000 1,176 Climbing FlightAware ADS-B
Sat 07:04:07 PM 33.9400 -118.5250 265° West 225 259 2,300 800 Climbing FlightAware ADS-B
Sat 07:04:22 PM 33.9380 -118.5510 265° West 254 292 2,600 2,323 Climbing FlightAware ADS-B
Sat 07:04:38 PM 33.9320 -118.5880 259° West 261 300 3,500 3,273 Climbing FlightAware ADS-B
Sat 07:04:44 PM 33.9290 -118.5940 239° Southwest 259 298 3,800 2,100 Climbing FlightAware ADS-B
Sat 07:05:18 PM 33.9120 -118.6260 237° Southwest 256 295 4,900 2,204 Climbing FlightAware ADS-B
Sat 07:05:33 PM 33.8960 -118.6400 216° Southwest 250 288 5,600 2,400 Climbing FlightAware ADS-B
Sat 07:05:48 PM 33.8810 -118.6460 198° South 250 288 6,100 2,308 Climbing FlightAware ADS-B
Sat 07:05:59 PM 33.8620 -118.6460 180° South 254 292 6,600 2,400 Climbing FlightAware ADS-B
Sat 07:06:18 PM 33.8410 -118.6360 158° South 251 289 7,300 2,000 Climbing FlightAware ADS-B
Sat 07:06:23 PM 33.8380 -118.6340 151° Southeast 251 289 7,400 1,500 Climbing FlightAware ADS-B
Sat 07:06:38 PM 33.8300 -118.6220 129° Southeast 251 289 7,800 1,800 Climbing FlightAware ADS-B
Sat 07:06:53 PM 33.8230 -118.5940 107° East 262 302 8,300 2,333 Climbing FlightAware ADS-B
Sat 07:07:14 PM 33.8410 -118.5470 65° Northeast 275 316 9,200 2,318 Climbing FlightAware ADS-B
Sat 07:07:37 PM 33.8580 -118.5230 50° Northeast 280 322 10,000 1,969 Climbing FlightAware ADS-B
Sat 07:08:18 PM 33.8990 -118.4740 45° Northeast 294 338 11,300 1,747 Climbing FlightAware ADS-B
Sat 07:08:56 PM 33.9360 -118.4280 46° Northeast 317 365 12,300 1,829 Climbing FlightAware ADS-B
Sat 07:09:40 PM 33.9730 -118.3620 56° Northeast 328 377 13,800 1,650 Climbing FlightAware ADS-B
Sat 07:10:16 PM 34.0060 -118.3040 56° Northeast 351 404 14,500 1,667 Climbing FlightAware ADS-B
Sat 07:10:52 PM 34.0400 -118.2450 55° Northeast 356 410 15,800 2,025 Climbing FlightAware ADS-B
Sat 07:11:36 PM 34.0800 -118.1730 56° Northeast 362 417 17,200 1,786 Climbing FlightAware ADS-B
Sat 07:12:16 PM 34.1180 -118.1050 56° Northeast 374 430 18,300 1,650 Climbing FlightAware ADS-B
Sat 07:12:56 PM 34.1590 -118.0330 55° Northeast 386 444 19,400 1,671 Climbing FlightAware ADS-B
Sat 07:13:35 PM 34.1970 -117.9650 56° Northeast 393 452 20,500 1,579 Climbing FlightAware ADS-B
Sat 07:14:12 PM 34.2370 -117.8940 56° Northeast 401 461 21,400 1,357 Climbing FlightAware ADS-B
Sat 07:14:59 PM 34.2970 -117.8220 45° Northeast 414 476 22,400 1,370 Climbing FlightAware ADS-B
Sat 07:15:44 PM 34.3740 -117.7660 31° Northeast 421 484 23,500 1,448 Climbing FlightAware ADS-B
Sat 07:16:26 PM 34.4450 -117.7160 30° Northeast 428 493 24,500 1,317 Climbing FlightAware ADS-B
Sat 07:17:06 PM 34.5120 -117.6680 31° Northeast 431 496 25,300 1,026 Climbing FlightAware ADS-B
Sat 07:17:42 PM 34.5760 -117.6220 31° Northeast 442 509 25,800 615 Climbing FlightAware ADS-B
Sat 07:18:24 PM 34.6510 -117.5690 30° Northeast 460 529 26,100 439 Climbing FlightAware ADS-B
Sat 07:19:04 PM 34.7190 -117.5110 35° Northeast 471 542 26,400 675 Climbing FlightAware ADS-B
Sat 07:19:44 PM 34.7680 -117.4280 54° Northeast 475 547 27,000 878 Climbing FlightAware ADS-B
Sat 07:20:26 PM 34.8260 -117.3320 54° Northeast 482 555 27,600 977 Climbing FlightAware ADS-B
Sat 07:21:10 PM 34.8820 -117.2380 54° Northeast 485 558 28,400 878 Climbing FlightAware ADS-B
Sat 07:21:48 PM 34.9360 -117.1460 54° Northeast 495 570 28,800 732 Climbing FlightAware ADS-B
Sat 07:22:32 PM 34.9930 -117.0500 54° Northeast 500 575 29,400 857 Climbing FlightAware ADS-B
Sat 07:23:12 PM 35.0490 -116.9540 55° Northeast 505 581 30,000 977 Climbing FlightAware ADS-B
Sat 07:23:58 PM 35.1120 -116.8480 54° Northeast 505 581 30,800 818 Climbing FlightAware ADS-B
Sat 07:24:40 PM 35.1640 -116.7600 54° Northeast 504 580 31,200 304 Climbing FlightAware ADS-B
Sat 07:25:17 PM 35.2070 -116.6880 54° Northeast 504 580 31,200 1,295 Level FlightAware ADS-B
Sat 07:26:08 PM 35.2870 -116.5490 55° Northeast 504 580 33,100 1,600 Climbing FlightAware ADS-B
Sat 07:26:47 PM 35.3410 -116.4560 55° Northeast 506 582 33,600 991 Climbing FlightAware ADS-B
Sat 07:27:57 PM 35.4330 -116.2960 55° Northeast 500 575 34,900 750 Climbing FlightAware ADS-B
Sat 07:28:39 PM 35.4900 -116.1970 55° Northeast 501 577 35,000 76 Climbing FlightAware ADS-B
Sat 07:29:16 PM 35.5390 -116.1130 54° Northeast 500 575 35,000  Level FlightAware ADS-B
Sat 07:29:51 PM 35.5800 -116.0420 55° Northeast 500 575 35,000  Level FlightAware ADS-B
Sat 07:30:40 PM 35.6520 -115.9160 55° Northeast 497 572 35,000  Level FlightAware ADS-B
Sat 07:31:18 PM 35.7030 -115.8270 55° Northeast 496 571 35,000  Level FlightAware ADS-B
Sat 07:32:01 PM 35.7560 -115.7340 55° Northeast 496 571 35,000  Level FlightAware ADS-B
Sat 07:32:43 PM 35.8140 -115.6320 55° Northeast 498 573 35,000  Level FlightAware ADS-B
Sat 07:33:29 PM 35.8750 -115.5240 55° Northeast 497 572 35,000  Level FlightAware ADS-B
Sat 07:34:07 PM 35.9250 -115.4340 56° Northeast 498 573 35,000  Level FlightAware ADS-B
Sat 07:34:52 PM 35.9820 -115.3330 55° Northeast 502 578 35,000  Level FlightAware ADS-B
Sat 07:35:32 PM 36.0360 -115.2370 55° Northeast 501 577 35,000  Level FlightAware ADS-B
Sat 07:36:17 PM 36.1000 -115.1340 52° Northeast 503 579 35,000  Level FlightAware ADS-B
Sat 07:36:57 PM 36.1580 -115.0610 45° Northeast 504 580 35,000  Level FlightAware ADS-B
Sat 07:37:25 PM 36.2050 -114.9930 49° Northeast 504 580 35,000  Level FlightAware ADS-B
Sat 07:38:07 PM 36.2380 -114.8850 69° East 504 580 35,000  Level FlightAware ADS-B
Sat 07:38:40 PM 36.2520 -114.8150 76° East 504 580 35,000  Level FlightAware ADS-B
Sat 07:39:26 PM 36.2810 -114.6530 77° East 503 579 35,000  Level FlightAware ADS-B
Sat 07:40:08 PM 36.3020 -114.5370 77° East 499 574 35,000  Level FlightAware ADS-B
Sat 07:40:47 PM 36.3220 -114.4270 77° East 498 573 35,000  Level FlightAware ADS-B
Sat 07:41:29 PM 36.3430 -114.3140 77° East 497 572 35,000  Level FlightAware ADS-B
Sat 07:42:07 PM 36.3630 -114.2060 77° East 495 570 35,000  Level FlightAware ADS-B
Sat 07:42:55 PM 36.3860 -114.0850 77° East 494 568 35,000  Level FlightAware ADS-B
Sat 07:43:43 PM 36.4140 -113.9410 76° East 495 570 35,000  Level FlightAware ADS-B
Sat 07:44:24 PM 36.4340 -113.8330 77° East 497 572 35,000  Level FlightAware ADS-B
Sat 07:45:08 PM 36.4590 -113.7040 76° East 500 575 35,000  Level FlightAware ADS-B
Sat 07:45:42 PM 36.4770 -113.6110 76° East 500 575 35,000  Level FlightAware ADS-B
Sat 07:46:25 PM 36.4990 -113.4970 76° East 501 577 35,000  Level FlightAware ADS-B
Sat 07:47:03 PM 36.5200 -113.3870 77° East 502 578 35,000  Level FlightAware ADS-B
Sat 07:47:39 PM 36.5380 -113.2830 78° East 499 574 35,000  Level FlightAware ADS-B
Sat 07:48:22 PM 36.5710 -113.1700 70° East 502 578 35,000  Level FlightAware ADS-B
Sat 07:49:05 PM 36.6370 -113.0770 48° Northeast 506 582 35,000  Level FlightAware ADS-B
Sat 07:49:45 PM 36.7070 -112.9960 43° Northeast 504 580 35,000  Level FlightAware ADS-B
Sat 07:50:29 PM 36.7820 -112.9100 43° Northeast 504 580 35,000  Level FlightAware ADS-B
Sat 07:51:04 PM 36.8460 -112.8490 37° Northeast 501 577 35,000  Level FlightAware ADS-B
Sat 07:51:53 PM 36.9500 -112.7840 27° Northeast 502 578 35,000  Level FlightAware ADS-B
Sat 07:52:29 PM 37.0220 -112.7370 28° Northeast 505 581 35,000  Level FlightAware ADS-B
Sat 07:53:07 PM 37.1020 -112.6860 27° Northeast 508 585 35,000  Level FlightAware ADS-B
Sat 07:54:06 PM 37.2140 -112.6140 27° Northeast 508 585 35,000  Level FlightAware ADS-B
Sat 07:54:42 PM 37.2780 -112.5730 27° Northeast 508 585 35,000  Level FlightAware ADS-B
Sat 07:55:30 PM 37.3630 -112.5180 27° Northeast 508 585 35,000  Level FlightAware ADS-B
Sat 07:56:06 PM 37.4270 -112.4770 27° Northeast 508 585 35,000  Level FlightAware ADS-B
Sat 07:56:54 PM 37.5130 -112.4220 27° Northeast 508 585 35,000  Level FlightAware ADS-B
Sat 07:57:30 PM 37.5770 -112.3810 27° Northeast 508 585 35,000  Level FlightAware ADS-B
Sat 07:58:06 PM 37.6410 -112.3400 27° Northeast 508 585 35,000  Level FlightAware ADS-B
Sat 07:58:54 PM 37.7260 -112.2850 27° Northeast 508 585 35,000  Level FlightAware ADS-B
Sat 07:59:30 PM 37.7900 -112.2430 27° Northeast 508 585 35,000  Level FlightAware ADS-B
Sat 08:00:06 PM 37.8540 -112.2020 27° Northeast 508 585 35,000  Level FlightAware ADS-B
Sat 08:00:54 PM 37.9400 -112.1470 27° Northeast 508 585 35,000  Level FlightAware ADS-B
Sat 08:01:30 PM 38.0040 -112.1050 27° Northeast 508 585 35,000  Level FlightAware ADS-B
Sat 08:02:18 PM 38.0890 -112.0500 27° Northeast 508 585 35,000  Level FlightAware ADS-B
Sat 08:02:54 PM 38.1530 -112.0090 27° Northeast 508 585 35,000  Level FlightAware ADS-B
Sat 08:03:32 PM 38.2210 -111.9650 27° Northeast 508 585 35,000 1,558 Level FlightAware ADS-B
Sat 08:04:11 PM 38.2208 -111.3761 27° Northeast 521 600 37,000 1,188 Climbing Denver Center
Sat 08:05:13 PM 38.3214 -111.1956 55° Northeast 521 600 37,000  Level Denver Center
Sat 08:06:15 PM 38.4058 -111.0461 54° Northeast 520 598 37,000  Level Denver Center
Sat 08:07:16 PM 38.4947 -110.8872 54° Northeast 522 601 37,000  Level Denver Center
Sat 08:08:18 PM 38.5722 -110.7400 56° Northeast 522 601 37,000  Level Denver Center
Sat 08:09:20 PM 38.6531 -110.5950 54° Northeast 523 602 37,000  Level Denver Center
Sat 08:10:21 PM 38.7475 -110.4261 54° Northeast 522 601 37,000  Level Denver Center
Sat 08:11:23 PM 38.8286 -110.2806 54° Northeast 523 602 37,000  Level Denver Center
Sat 08:12:25 PM 38.9200 -110.1072 56° Northeast 524 603 37,000  Level Denver Center
Sat 08:13:26 PM 39.0003 -109.9597 55° Northeast 527 606 37,000  Level Denver Center
Sat 08:14:28 PM 39.0933 -109.7878 55° Northeast 526 605 37,000  Level Denver Center
Sat 08:15:30 PM 39.1733 -109.6397 55° Northeast 524 603 37,000  Level Denver Center
Sat 08:16:31 PM 39.2650 -109.4667 56° Northeast 522 601 37,000  Level Denver Center
Sat 08:21:53 PM 39.7010 -108.6190 56° Northeast 539 620 37,000  Level FlightAware ADS-B
Sat 08:22:28 PM 39.7290 -108.5150 71° East 540 621 37,000  Level FlightAware ADS-B
Sat 08:23:23 PM 39.7760 -108.3440 70° East 537 618 37,000  Level FlightAware ADS-B
Sat 08:24:03 PM 39.8070 -108.2310 70° East 538 619 37,000  Level FlightAware ADS-B
Sat 08:24:43 PM 39.8380 -108.1160 71° East 538 619 37,000  Level FlightAware ADS-B
Sat 08:25:21 PM 39.8700 -108.0030 70° East 538 619 37,000  Level FlightAware ADS-B
Sat 08:26:09 PM 39.9050 -107.8780 70° East 538 619 37,000  Level FlightAware ADS-B
Sat 08:26:46 PM 39.9310 -107.7820 71° East 538 619 37,000  Level FlightAware ADS-B
Sat 08:27:24 PM 39.9590 -107.6840 70° East 538 619 37,000  Level FlightAware ADS-B
Sat 08:28:05 PM 40.0070 -107.4880 72° East 539 620 37,000  Level FlightAware ADS-B
Sat 08:28:52 PM 40.0460 -107.3430 71° East 540 621 37,000  Level FlightAware ADS-B
Sat 08:29:33 PM 40.0790 -107.2140 71° East 541 623 37,000  Level FlightAware ADS-B
Sat 08:30:19 PM 40.1160 -107.0750 71° East 541 623 37,000  Level FlightAware ADS-B
Sat 08:30:52 PM 40.1440 -106.9680 71° East 541 623 37,000  Level FlightAware ADS-B
Sat 08:31:38 PM 40.1790 -106.8330 71° East 543 625 37,000  Level FlightAware ADS-B
Sat 08:32:38 PM 40.2270 -106.6440 72° East 543 625 37,000  Level FlightAware ADS-B
Sat 08:33:13 PM 40.2510 -106.5520 71° East 544 626 37,000  Level FlightAware ADS-B
Sat 08:34:00 PM 40.2940 -106.3850 71° East 547 629 37,000  Level FlightAware ADS-B
Sat 08:34:44 PM 40.3290 -106.2460 72° East 548 631 37,000  Level FlightAware ADS-B
Sat 08:35:25 PM 40.3610 -106.1180 72° East 548 631 37,000  Level FlightAware ADS-B
Sat 08:36:10 PM 40.3970 -105.9740 72° East 548 631 37,000  Level FlightAware ADS-B
Sat 08:36:42 PM 40.4220 -105.8720 72° East 546 628 37,000  Level FlightAware ADS-B
Sat 08:37:23 PM 40.4540 -105.7450 72° East 543 625 37,000  Level FlightAware ADS-B
Sat 08:38:06 PM 40.4880 -105.6080 72° East 545 627 37,000  Level FlightAware ADS-B
Sat 08:38:40 PM 40.5130 -105.5050 72° East 547 629 37,000  Level FlightAware ADS-B
Sat 08:39:24 PM 40.5470 -105.3640 72° East 545 627 37,000  Level FlightAware ADS-B
Sat 08:40:05 PM 40.5780 -105.2360 72° East 543 625 37,000  Level FlightAware ADS-B
Sat 08:40:40 PM 40.6050 -105.1230 72° East 541 623 37,000  Level FlightAware ADS-B
Sat 08:41:24 PM 40.6380 -104.9860 72° East 542 624 37,000  Level FlightAware ADS-B
Sat 08:42:04 PM 40.6680 -104.8600 73° East 542 624 37,000  Level FlightAware ADS-B
Sat 08:42:48 PM 40.7010 -104.7210 73° East 544 626 37,000  Level FlightAware ADS-B
Sat 08:43:28 PM 40.7310 -104.5940 73° East 544 626 37,000  Level FlightAware ADS-B
Sat 08:44:12 PM 40.7640 -104.4550 73° East 541 623 37,000  Level FlightAware ADS-B
Sat 08:44:52 PM 40.7930 -104.3320 73° East 540 621 37,000  Level FlightAware ADS-B
Sat 08:45:29 PM 40.8190 -104.2160 73° East 539 620 37,000  Level FlightAware ADS-B
Sat 08:46:10 PM 40.8500 -104.0840 73° East 541 623 37,000  Level FlightAware ADS-B
Sat 08:46:54 PM 40.8820 -103.9450 73° East 542 624 37,000  Level FlightAware ADS-B
Sat 08:47:34 PM 40.9100 -103.8210 73° East 544 626 37,000  Level FlightAware ADS-B
Sat 08:48:17 PM 40.9410 -103.6850 73° East 546 628 37,000  Level FlightAware ADS-B
Sat 08:48:56 PM 40.9700 -103.5570 73° East 548 631 37,000  Level FlightAware ADS-B
Sat 08:49:40 PM 41.0010 -103.4180 73° East 548 631 37,000  Level FlightAware ADS-B
Sat 08:50:20 PM 41.0290 -103.2890 74° East 550 633 37,000  Level FlightAware ADS-B
Sat 08:50:51 PM 41.0510 -103.1910 73° East 550 633 37,000  Level FlightAware ADS-B
Sat 08:51:40 PM 41.0860 -103.0310 74° East 544 626 37,000  Level FlightAware ADS-B
Sat 08:52:16 PM 41.1110 -102.9160 74° East 543 625 37,000  Level FlightAware ADS-B
Sat 08:52:56 PM 41.1360 -102.7880 75° East 542 624 37,000  Level FlightAware ADS-B
Sat 08:53:40 PM 41.1640 -102.6460 75° East 541 623 37,000  Level FlightAware ADS-B
Sat 08:54:20 PM 41.1890 -102.5220 75° East 537 618 37,000  Level FlightAware ADS-B
Sat 08:55:04 PM 41.2170 -102.3790 75° East 533 613 37,000  Level FlightAware ADS-B
Sat 08:55:44 PM 41.2420 -102.2510 75° East 533 613 37,000  Level FlightAware ADS-B
Sat 08:56:28 PM 41.2690 -102.1140 75° East 530 610 37,000  Level FlightAware ADS-B
Sat 08:57:07 PM 41.2920 -101.9930 76° East 528 608 37,000  Level FlightAware ADS-B
Sat 08:57:50 PM 41.3170 -101.8630 76° East 526 605 37,000  Level FlightAware ADS-B
Sat 08:58:34 PM 41.3430 -101.7320 75° East 528 608 37,000  Level FlightAware ADS-B
Sat 08:59:10 PM 41.3620 -101.6360 75° East 528 608 37,000  Level FlightAware ADS-B
Sat 08:59:54 PM 41.3920 -101.4690 76° East 528 608 37,000  Level FlightAware ADS-B
Sat 09:00:55 PM 41.4250 -101.3060 75° East 528 608 37,000  Level FlightAware ADS-B
Sat 09:01:31 PM 41.4440 -101.2100 75° East 528 608 37,000  Level FlightAware ADS-B
Sat 09:02:31 PM 41.4760 -101.0490 75° East 528 608 37,000  Level FlightAware ADS-B
Sat 09:03:08 PM 41.4960 -100.9500 75° East 528 608 37,000  Level FlightAware ADS-B
Sat 09:03:56 PM 41.5220 -100.8210 75° East 528 608 37,000  Level FlightAware ADS-B
Sat 09:04:32 PM 41.5410 -100.7250 75° East 528 608 37,000  Level FlightAware ADS-B
Sat 09:05:06 PM 41.5600 -100.6340 74° East 528 608 37,000  Level FlightAware ADS-B
Sat 09:05:54 PM 41.5850 -100.5050 75° East 528 608 37,000  Level FlightAware ADS-B
Sat 09:06:30 PM 41.6050 -100.4090 74° East 528 608 37,000  Level FlightAware ADS-B
Sat 09:07:06 PM 41.6240 -100.3120 75° East 528 608 37,000  Level FlightAware ADS-B
Sat 09:07:55 PM 41.6500 -100.1800 75° East 528 608 37,000  Level FlightAware ADS-B
Sat 09:08:31 PM 41.6700 -100.0840 74° East 528 608 37,000  Level FlightAware ADS-B
Sat 09:09:19 PM 41.6950 -99.9550 75° East 528 608 37,000  Level FlightAware ADS-B
Sat 09:09:50 PM 41.9883 -99.7514 75° East 521 600 37,000  Level Minneapolis Center
Sat 09:10:51 PM 42.0647 -99.5850 58° Northeast 520 598 37,000  Level Minneapolis Center
Sat 09:11:53 PM 42.1408 -99.4183 58° Northeast 520 598 37,000  Level Minneapolis Center
Sat 09:13:02 PM 42.2303 -99.2200 59° Northeast 519 597 37,000  Level Denver Center
Sat 09:13:56 PM 42.2917 -99.0861 58° Northeast 513 590 37,000  Level Minneapolis Center
Sat 09:14:58 PM 42.3797 -98.8900 59° Northeast 506 582 37,000  Level Minneapolis Center
Sat 09:16:00 PM 42.4478 -98.7200 61° Northeast 516 594 37,000  Level Minneapolis Center
Sat 09:21:24 PM 42.6110 -97.6590 61° Northeast 549 632 37,000  Level FlightAware ADS-B
Sat 09:21:58 PM 42.6260 -97.5430 80° East 554 638 37,000  Level FlightAware ADS-B
Sat 09:22:43 PM 42.6450 -97.3930 80° East 556 640 37,000  Level FlightAware ADS-B
Sat 09:23:31 PM 42.6680 -97.2180 80° East 554 638 37,000  Level FlightAware ADS-B
Sat 09:24:09 PM 42.6840 -97.0900 80° East 554 638 37,000  Level FlightAware ADS-B
Sat 09:25:08 PM 42.7100 -96.8840 80° East 555 639 37,000  Level FlightAware ADS-B
Sat 09:25:38 PM 42.7230 -96.7820 80° East 555 639 37,000  Level FlightAware ADS-B
Sat 09:26:25 PM 42.7430 -96.6150 81° East 553 636 37,000  Level FlightAware ADS-B
Sat 09:27:09 PM 42.7610 -96.4700 80° East 553 636 37,000  Level FlightAware ADS-B
Sat 09:27:41 PM 42.7740 -96.3580 81° East 552 635 37,000  Level FlightAware ADS-B
Sat 09:28:25 PM 42.7920 -96.2090 81° East 551 634 37,000  Level FlightAware ADS-B
Sat 09:29:05 PM 42.8080 -96.0710 81° East 550 633 37,000  Level FlightAware ADS-B
Sat 09:29:49 PM 42.8260 -95.9200 81° East 550 633 37,000  Level FlightAware ADS-B
Sat 09:30:45 PM 42.8480 -95.7280 81° East 551 634 37,000  Level FlightAware ADS-B
Sat 09:31:25 PM 42.8630 -95.5900 82° East 550 633 37,000  Level FlightAware ADS-B
Sat 09:32:09 PM 42.8800 -95.4420 81° East 550 633 37,000  Level FlightAware ADS-B
Sat 09:32:49 PM 42.8950 -95.3030 82° East 550 633 37,000  Level FlightAware ADS-B
Sat 09:33:33 PM 42.9120 -95.1530 81° East 549 632 37,000  Level FlightAware ADS-B
Sat 09:34:13 PM 42.9260 -95.0210 82° East 550 633 37,000  Level FlightAware ADS-B
Sat 09:34:57 PM 42.9420 -94.8660 82° East 552 635 37,000  Level FlightAware ADS-B
Sat 09:35:37 PM 42.9570 -94.7270 82° East 553 636 37,000  Level FlightAware ADS-B
Sat 09:36:17 PM 42.9710 -94.5890 82° East 553 636 37,000  Level FlightAware ADS-B
Sat 09:36:51 PM 42.9830 -94.4720 82° East 552 635 37,000  Level FlightAware ADS-B
Sat 09:37:37 PM 43.0000 -94.3120 82° East 551 634 37,000  Level FlightAware ADS-B
Sat 09:38:17 PM 43.0130 -94.1810 82° East 550 633 37,000  Level FlightAware ADS-B
Sat 09:38:59 PM 43.0280 -94.0310 82° East 547 629 37,000  Level FlightAware ADS-B
Sat 09:39:43 PM 43.0420 -93.8850 82° East 549 632 37,000  Level FlightAware ADS-B
Sat 09:40:27 PM 43.0570 -93.7290 82° East 550 633 37,000  Level FlightAware ADS-B
Sat 09:41:07 PM 43.0700 -93.5930 82° East 550 633 37,000  Level FlightAware ADS-B
Sat 09:41:39 PM 43.0800 -93.4820 83° East 550 633 37,000  Level FlightAware ADS-B
Sat 09:42:24 PM 43.1020 -93.3320 79° East 548 631 37,000  Level FlightAware ADS-B
Sat 09:43:03 PM 43.1350 -93.2010 71° East 548 631 37,000  Level FlightAware ADS-B
Sat 09:43:47 PM 43.1790 -93.0620 66° East 549 632 37,000  Level FlightAware ADS-B
Sat 09:44:31 PM 43.2220 -92.9200 67° East 550 633 37,000  Level FlightAware ADS-B
Sat 09:45:12 PM 43.2620 -92.7910 67° East 551 634 37,000  Level FlightAware ADS-B
Sat 09:45:56 PM 43.3060 -92.6490 67° East 552 635 37,000  Level FlightAware ADS-B
Sat 09:46:28 PM 43.3380 -92.5440 67° East 553 636 37,000  Level FlightAware ADS-B
Sat 09:47:12 PM 43.3820 -92.4010 67° East 554 638 37,000  Level FlightAware ADS-B
Sat 09:47:52 PM 43.4210 -92.2710 68° East 554 638 37,000  Level FlightAware ADS-B
Sat 09:48:26 PM 43.4540 -92.1600 68° East 553 636 37,000  Level FlightAware ADS-B
Sat 09:49:12 PM 43.4990 -92.0100 67° East 554 638 37,000  Level FlightAware ADS-B
Sat 09:49:52 PM 43.5370 -91.8820 68° East 555 639 37,000  Level FlightAware ADS-B
Sat 09:50:28 PM 43.5700 -91.7710 68° East 555 639 37,000  Level FlightAware ADS-B
Sat 09:51:10 PM 43.6110 -91.6340 68° East 554 638 37,000  Level FlightAware ADS-B
Sat 09:51:49 PM 43.6490 -91.5030 68° East 554 638 37,000  Level FlightAware ADS-B
Sat 09:52:34 PM 43.6920 -91.3540 68° East 555 639 37,000  Level FlightAware ADS-B
Sat 09:53:14 PM 43.7310 -91.2200 68° East 557 641 37,000  Level FlightAware ADS-B
Sat 09:53:57 PM 43.7720 -91.0790 68° East 558 642 37,000  Level FlightAware ADS-B
Sat 09:54:39 PM 43.8120 -90.9410 68° East 557 641 37,000  Level FlightAware ADS-B
Sat 09:55:18 PM 43.8500 -90.8070 68° East 555 639 37,000  Level FlightAware ADS-B
Sat 09:55:54 PM 43.8830 -90.6910 68° East 556 640 37,000  Level FlightAware ADS-B
Sat 09:56:38 PM 43.9250 -90.5430 68° East 554 638 37,000  Level FlightAware ADS-B
Sat 09:57:14 PM 43.9580 -90.4250 69° East 555 639 37,000  Level FlightAware ADS-B
Sat 09:57:54 PM 43.9950 -90.2920 69° East 557 641 37,000  Level FlightAware ADS-B
Sat 09:58:38 PM 44.0360 -90.1440 69° East 557 641 37,000  Level FlightAware ADS-B
Sat 09:59:16 PM 44.0700 -90.0200 69° East 556 640 37,000  Level FlightAware ADS-B
Sat 09:59:54 PM 44.1050 -89.8930 69° East 556 640 37,000  Level FlightAware ADS-B
Sat 10:00:48 PM 44.1530 -89.7170 69° East 557 641 37,000  Level FlightAware ADS-B
Sat 10:01:29 PM 44.1920 -89.5760 69° East 558 642 37,000  Level FlightAware ADS-B
Sat 10:02:06 PM 44.2260 -89.4500 69° East 561 646 37,000  Level FlightAware ADS-B
Sat 10:02:53 PM 44.2670 -89.2960 70° East 560 644 37,000  Level FlightAware ADS-B
Sat 10:03:29 PM 44.3000 -89.1720 70° East 560 644 37,000  Level FlightAware ADS-B
Sat 10:04:03 PM 44.3290 -89.0620 70° East 559 643 37,000  Level FlightAware ADS-B
Sat 10:04:53 PM 44.3750 -88.8890 70° East 558 642 37,000  Level FlightAware ADS-B
Sat 10:05:25 PM 44.4040 -88.7790 70° East 558 642 37,000  Level FlightAware ADS-B
Sat 10:06:08 PM 44.4420 -88.6340 70° East 559 643 37,000  Level FlightAware ADS-B
Sat 10:06:48 PM 44.4760 -88.5030 70° East 561 646 37,000  Level FlightAware ADS-B
Sat 10:07:25 PM 44.5090 -88.3740 70° East 563 648 37,000  Level FlightAware ADS-B
Sat 10:08:07 PM 44.5420 -88.2250 73° East 567 652 37,000  Level FlightAware ADS-B
Sat 10:08:50 PM 44.5610 -88.0690 80° East 570 656 37,000  Level FlightAware ADS-B
Sat 10:09:30 PM 44.5690 -87.9270 85° East 569 655 37,000  Level FlightAware ADS-B
Sat 10:10:12 PM 44.5770 -87.7720 86° East 569 655 37,000  Level FlightAware ADS-B
Sat 10:10:55 PM 44.5850 -87.6150 86° East 570 656 37,000  Level FlightAware ADS-B
Sat 10:13:32 PM 44.6100 -87.1090 86° East 570 656 37,000  Level FlightAware ADS-B
Sat 10:14:14 PM 44.6190 -86.8740 87° East 567 652 37,000  Level FlightAware ADS-B
Sat 10:14:59 PM 44.6260 -86.7110 86° East 566 651 37,000  Level FlightAware ADS-B
Sat 10:15:39 PM 44.6340 -86.5650 86° East 567 652 37,000  Level FlightAware ADS-B
Sat 10:16:22 PM 44.6700 -86.4200 71° East 567 652 37,000  Level FlightAware ADS-B
Sat 10:16:59 PM 44.7020 -86.2920 71° East 569 655 37,000  Level FlightAware ADS-B
Sat 10:17:38 PM 44.7370 -86.1530 70° East 569 655 37,000  Level FlightAware ADS-B
Sat 10:18:23 PM 44.7770 -85.9950 70° East 569 655 37,000  Level FlightAware ADS-B
Sat 10:19:01 PM 44.8100 -85.8660 70° East 570 656 37,000  Level FlightAware ADS-B
Sat 10:19:44 PM 44.8480 -85.7140 71° East 572 658 37,000  Level FlightAware ADS-B
Sat 10:20:24 PM 44.8830 -85.5720 71° East 572 658 37,000  Level FlightAware ADS-B
Sat 10:21:08 PM 44.9210 -85.4170 71° East 575 662 37,000  Level FlightAware ADS-B
Sat 10:21:52 PM 44.9590 -85.2620 71° East 577 664 37,000  Level FlightAware ADS-B
Sat 10:22:25 PM 44.9880 -85.1430 71° East 576 663 37,000  Level FlightAware ADS-B
Sat 10:23:21 PM 45.0360 -84.9440 71° East 573 659 37,000  Level FlightAware ADS-B
Sat 10:24:05 PM 45.0730 -84.7900 71° East 570 656 37,000  Level FlightAware ADS-B
Sat 10:24:37 PM 45.1000 -84.6760 71° East 570 656 37,000  Level FlightAware ADS-B
Sat 10:25:21 PM 45.1370 -84.5180 72° East 571 657 37,000  Level FlightAware ADS-B
Sat 10:26:01 PM 45.1700 -84.3800 71° East 573 659 37,000  Level FlightAware ADS-B
Sat 10:26:45 PM 45.2070 -84.2210 72° East 573 659 37,000  Level FlightAware ADS-B
Sat 10:27:25 PM 45.2400 -84.0780 72° East 573 659 37,000  Level FlightAware ADS-B
Sat 10:28:09 PM 45.2760 -83.9250 71° East 573 659 37,000  Level FlightAware ADS-B
Sat 10:28:49 PM 45.3090 -83.7800 72° East 573 659 37,000  Level FlightAware ADS-B
Sat 10:29:33 PM 45.3440 -83.6230 72° East 577 664 37,000  Level FlightAware ADS-B
Sat 10:30:15 PM 45.3780 -83.4750 72° East 578 665 37,000  Level FlightAware ADS-B
Sat 10:30:57 PM 45.4120 -83.3230 72° East 580 667 37,000  Level FlightAware ADS-B
Sat 10:31:39 PM 45.4460 -83.1700 72° East 580 667 37,000  Level FlightAware ADS-B
Sat 10:32:19 PM 45.4780 -83.0250 72° East 579 666 37,000  Level FlightAware ADS-B
Sat 10:33:03 PM 45.5130 -82.8660 73° East 578 665 37,000  Level FlightAware ADS-B
Sat 10:33:39 PM 45.5420 -82.7330 73° East 576 663 37,000  Level FlightAware ADS-B
Sat 10:34:19 PM 45.5720 -82.5910 73° East 577 664 37,000  Level FlightAware ADS-B
Sat 10:35:03 PM 45.6070 -82.4310 73° East 577 664 37,000  Level FlightAware ADS-B
Sat 10:35:41 PM 45.6370 -82.2900 73° East 579 666 37,000  Level FlightAware ADS-B
Sat 10:36:25 PM 45.6710 -82.1260 73° East 579 666 37,000  Level FlightAware ADS-B
Sat 10:37:07 PM 45.7040 -81.9710 73° East 580 667 37,000  Level FlightAware ADS-B
Sat 10:37:50 PM 45.7370 -81.8140 73° East 579 666 37,000  Level FlightAware ADS-B
Sat 10:38:27 PM 45.7650 -81.6760 74° East 581 669 37,000  Level FlightAware ADS-B
Sat 10:39:06 PM 45.7940 -81.5340 74° East 580 667 37,000  Level FlightAware ADS-B
Sat 10:39:47 PM 45.8260 -81.3810 73° East 582 670 37,000  Level FlightAware ADS-B
Sat 10:40:31 PM 45.8570 -81.2250 74° East 584 672 37,000  Level FlightAware ADS-B
Sat 10:41:14 PM 45.8910 -81.0580 74° East 587 676 37,000  Level FlightAware ADS-B
Sat 10:41:54 PM 45.9200 -80.9100 74° East 585 673 37,000  Level FlightAware ADS-B
Sat 10:42:38 PM 45.9530 -80.7450 74° East 585 673 37,000  Level FlightAware ADS-B
Sat 10:43:25 PM 45.9840 -80.5850 74° East 585 673 37,000  Level FlightAware ADS-B
Sat 10:44:08 PM 46.0180 -80.4080 74° East 584 672 37,000  Level FlightAware ADS-B
Sat 10:44:48 PM 46.0470 -80.2590 74° East 583 671 37,000  Level FlightAware ADS-B
Sat 10:45:24 PM 46.0730 -80.1230 75° East 583 671 37,000  Level FlightAware ADS-B
Sat 10:46:08 PM 46.1030 -79.9630 75° East 583 671 37,000  Level FlightAware ADS-B
Sat 10:46:48 PM 46.1320 -79.8090 75° East 584 672 37,000  Level FlightAware ADS-B
Sat 10:47:30 PM 46.1610 -79.6520 75° East 583 671 37,000  Level FlightAware ADS-B
Sat 10:48:14 PM 46.1920 -79.4870 75° East 584 672 37,000  Level FlightAware ADS-B
Sat 10:48:54 PM 46.2190 -79.3370 75° East 585 673 37,000  Level FlightAware ADS-B
Sat 10:49:38 PM 46.2500 -79.1710 75° East 587 676 37,000  Level FlightAware ADS-B
Sat 10:50:14 PM 46.2740 -79.0360 76° East 588 677 37,000  Level FlightAware ADS-B
Sat 10:50:54 PM 46.3010 -78.8850 75° East 588 677 37,000  Level FlightAware ADS-B
Sat 10:51:35 PM 46.3290 -78.7250 76° East 585 673 37,000  Level FlightAware ADS-B
Sat 10:52:14 PM 46.3550 -78.5800 75° East 585 673 37,000  Level FlightAware ADS-B
Sat 10:52:54 PM 46.3810 -78.4300 76° East 587 676 37,000  Level FlightAware ADS-B
Sat 10:53:35 PM 46.4080 -78.2750 76° East 590 679 37,000  Level FlightAware ADS-B
Sat 10:54:15 PM 46.4350 -78.1170 76° East 592 681 37,000  Level FlightAware ADS-B
Sat 10:55:16 PM 46.4720 -77.8990 76° East 593 682 37,000  Level FlightAware ADS-B
Sat 10:55:52 PM 46.4920 -77.7810 76° East 593 682 37,000  Level FlightAware ADS-B
Sat 10:56:40 PM 46.5190 -77.6230 76° East 593 682 37,000  Level FlightAware ADS-B
Sat 10:57:14 PM 46.5500 -77.4270 77° East 594 684 37,000  Level FlightAware ADS-B
Sat 10:57:53 PM 46.5750 -77.2720 77° East 592 681 37,000  Level FlightAware ADS-B
Sat 10:58:36 PM 46.6000 -77.1240 76° East 592 681 37,000  Level FlightAware ADS-B
Sat 10:59:16 PM 46.6230 -76.9740 77° East 590 679 37,000  Level FlightAware ADS-B
Sat 10:59:51 PM 46.6450 -76.8360 77° East 589 678 37,000  Level FlightAware ADS-B
Sat 11:00:36 PM 46.6730 -76.6590 77° East 591 680 37,000  Level FlightAware ADS-B
Sat 11:01:31 PM 46.7050 -76.4470 78° East 592 681 37,000  Level FlightAware ADS-B
Sat 11:02:21 PM 46.7330 -76.2690 77° East 593 682 37,000  Level FlightAware ADS-B
Sat 11:03:07 PM 46.7600 -76.0900 78° East 592 681 37,000  Level FlightAware ADS-B
Sat 11:03:52 PM 46.7900 -75.8860 78° East 593 682 37,000  Level FlightAware ADS-B
Sat 11:04:26 PM 46.8100 -75.7510 78° East 596 686 37,000  Level FlightAware ADS-B
Sat 11:05:10 PM 46.8360 -75.5800 77° East 597 687 37,000  Level FlightAware ADS-B
Sat 11:05:47 PM 46.8560 -75.4360 78° East 595 685 37,000  Level FlightAware ADS-B
Sat 11:06:26 PM 46.8780 -75.2870 78° East 595 685 37,000  Level FlightAware ADS-B
Sat 11:07:02 PM 46.8970 -75.1490 79° East 595 685 37,000  Level FlightAware ADS-B
Sat 11:07:47 PM 46.9240 -74.9620 78° East 594 684 37,000  Level FlightAware ADS-B
Sat 11:08:32 PM 46.9490 -74.7840 78° East 597 687 37,000  Level FlightAware ADS-B
Sat 11:09:27 PM 46.9790 -74.5650 79° East 598 688 37,000  Level FlightAware ADS-B
Sat 11:10:08 PM 47.0000 -74.4040 79° East 600 690 37,000  Level FlightAware ADS-B
Sat 11:10:47 PM 47.0210 -74.2480 79° East 598 688 37,000  Level FlightAware ADS-B
Sat 11:13:23 PM 47.0980 -73.7000 78° East 596 686 37,000  Level FlightAware ADS-B
Sat 11:14:02 PM 47.1300 -73.4760 78° East 594 684 37,000  Level FlightAware ADS-B
Sat 11:14:38 PM 47.1490 -73.3360 79° East 595 685 37,000  Level FlightAware ADS-B
Sat 11:15:18 PM 47.1710 -73.1790 78° East 598 688 37,000  Level FlightAware ADS-B
Sat 11:16:03 PM 47.1950 -73.0020 79° East 599 689 37,000  Level FlightAware ADS-B
Sat 11:16:38 PM 47.2140 -72.8620 79° East 598 688 37,000  Level FlightAware ADS-B
Sat 11:17:18 PM 47.2350 -72.7080 79° East 597 687 37,000  Level FlightAware ADS-B
Sat 11:18:14 PM 47.2650 -72.4760 79° East 600 690 37,000  Level FlightAware ADS-B
Sat 11:18:54 PM 47.2860 -72.3170 79° East 604 695 37,000  Level FlightAware ADS-B
Sat 11:19:55 PM 47.3170 -72.0740 79° East 604 695 37,000  Level FlightAware ADS-B
Sat 11:20:49 PM 47.3100 -72.1290 259° West 602 693 37,000  Level FlightAware ADS-B
Sat 11:21:27 PM 47.3630 -71.7070 79° East 599 689 37,000  Level FlightAware ADS-B
Sat 11:22:04 PM 47.3790 -71.5830 79° East 599 689 37,000  Level FlightAware ADS-B
Sat 11:22:47 PM 47.4030 -71.3860 80° East 600 690 37,000  Level FlightAware ADS-B
Sat 11:23:21 PM 47.4200 -71.2420 80° East 601 692 37,000  Level FlightAware ADS-B
Sat 11:24:05 PM 47.4410 -71.0620 80° East 601 692 37,000  Level FlightAware ADS-B
Sat 11:24:51 PM 47.4610 -70.8940 80° East 603 694 37,000  Level FlightAware ADS-B
Sat 11:25:31 PM 47.4800 -70.7330 80° East 604 695 37,000  Level FlightAware ADS-B
Sat 11:26:09 PM 47.4990 -70.5580 81° East 605 696 37,000  Level FlightAware ADS-B
Sat 11:26:49 PM 47.5160 -70.4120 80° East 604 695 37,000  Level FlightAware ADS-B
Sat 11:27:35 PM 47.5370 -70.2240 81° East 602 693 37,000  Level FlightAware ADS-B
Sat 11:28:19 PM 47.5580 -70.0310 81° East 603 694 37,000  Level FlightAware ADS-B
Sat 11:28:59 PM 47.5750 -69.8680 81° East 602 693 37,000  Level FlightAware ADS-B
Sat 11:29:45 PM 47.5940 -69.6970 81° East 601 692 37,000  Level FlightAware ADS-B
Sat 11:30:25 PM 47.6110 -69.5260 82° East 600 690 37,000  Level FlightAware ADS-B
Sat 11:31:04 PM 47.6280 -69.3630 81° East 603 694 37,000  Level FlightAware ADS-B
Sat 11:31:52 PM 47.6460 -69.1920 81° East 604 695 37,000  Level FlightAware ADS-B
Sat 11:32:32 PM 47.6290 -69.3560 261° West 604 695 37,000  Level FlightAware ADS-B
Sat 11:33:08 PM 47.6430 -69.2310 81° East 604 695 37,000  Level FlightAware ADS-B
Sat 11:33:56 PM 47.6600 -69.0630 81° East 604 695 37,000  Level FlightAware ADS-B
Sat 11:34:32 PM 47.6740 -68.9380 81° East 604 695 37,000  Level FlightAware ADS-B
Sat 11:35:20 PM 47.6920 -68.7710 81° East 604 695 37,000  Level FlightAware ADS-B
Sat 11:35:30 PM 47.6190 -69.4500 261° West 37,000  Level FlightAware ADS-B
Sat 11:36:10 PM 47.7510 -68.1140 81° East 601 692 37,000  Level FlightAware ADS-B
Sat 11:36:49 PM 47.7700 -67.9800 78° East 601 692 37,000  Level FlightAware ADS-B
Sat 11:37:37 PM 47.7940 -67.8140 78° East 601 692 37,000  Level FlightAware ADS-B
Sat 11:38:13 PM 47.8110 -67.6910 78° East 601 692 37,000  Level FlightAware ADS-B
Sat 11:39:01 PM 47.8350 -67.5250 78° East 601 692 37,000  Level FlightAware ADS-B
Sat 11:39:37 PM 47.8530 -67.4010 78° East 601 692 37,000  Level FlightAware ADS-B
Sat 11:40:13 PM 47.8700 -67.2770 78° East 601 692 37,000  Level FlightAware ADS-B
Sat 11:41:01 PM 47.8940 -67.1120 78° East 601 692 37,000  Level FlightAware ADS-B
Sat 11:41:37 PM 47.9110 -66.9880 78° East 601 692 37,000  Level FlightAware ADS-B
Sat 11:42:25 PM 47.9350 -66.8220 78° East 601 692 37,000  Level FlightAware ADS-B
Sat 11:43:01 PM 47.9530 -66.6980 78° East 601 692 37,000  Level FlightAware ADS-B
Sat 11:43:50 PM 47.9770 -66.5290 78° East 601 692 37,000  Level FlightAware ADS-B
Sat 11:44:26 PM 47.9940 -66.4040 78° East 601 692 37,000  Level FlightAware ADS-B
Sat 11:45:14 PM 48.0180 -66.2380 78° East 601 692 37,000  Level FlightAware ADS-B
Sat 11:45:51 PM 48.0360 -66.1100 78° East 601 692 37,000  Level FlightAware ADS-B
Sat 11:46:42 PM 48.0667 -65.6000 78° East 580 667 37,000  Level Moncton Center
Sat 11:47:42 PM 48.0833 -65.3500 84° East 590 679 37,000  Level Moncton Center
Sat 11:48:42 PM 48.1167 -65.1000 79° East 590 679 37,000  Level Moncton Center
Sat 11:49:42 PM 48.1333 -64.8667 84° East 590 679 37,000  Level Moncton Center
Sat 11:50:42 PM 48.1667 -64.6167 79° East 580 667 37,000  Level Moncton Center
Sat 11:51:42 PM 48.1833 -64.4000 83° East 580 667 37,000  Level Moncton Center
Sat 11:52:42 PM 48.2167 -64.1167 80° East 580 667 37,000  Level Moncton Center
Sat 11:53:42 PM 48.2333 -63.9000 83° East 590 679 37,000  Level Moncton Center
Sat 11:54:42 PM 48.2667 -63.6500 79° East 590 679 37,000  Level Moncton Center
Sat 11:55:42 PM 48.2833 -63.4167 84° East 580 667 37,000  Level Moncton Center
Sat 11:56:42 PM 48.3000 -63.1833 84° East 570 656 37,000  Level Moncton Center
Sat 11:57:42 PM 48.3333 -62.9333 79° East 570 656 37,000  Level Moncton Center
Sat 11:58:42 PM 48.3333 -62.7167 90° East 570 656 37,000  Level Moncton Center
Sat 11:59:42 PM 48.3667 -62.4500 79° East 580 667 37,000  Level Moncton Center
Sun 12:00:42 AM 48.3833 -62.2333 83° East 580 667 37,000  Level Moncton Center
Sun 12:01:42 AM 48.4167 -61.9833 79° East 590 679 37,000  Level Moncton Center
Sun 12:02:42 AM 48.4167 -61.7167 90° East 580 667 37,000  Level Moncton Center
Sun 12:03:42 AM 48.4500 -61.5000 77° East 580 667 37,000  Level Moncton Center
Sun 12:04:42 AM 48.4667 -61.2333 85° East 580 667 37,000  Level Moncton Center
Sun 12:10:13 AM 48.5670 -59.9300 85° East 585 673 37,000  Level FlightAware ADS-B
Sun 12:10:53 AM 48.5770 -59.7670 85° East 584 672 37,000  Level FlightAware ADS-B
Sun 12:13:34 AM 48.6100 -59.1950 85° East 563 648 37,000  Level FlightAware ADS-B
Sun 12:14:18 AM 48.6230 -58.9690 85° East 562 647 37,000  Level FlightAware ADS-B
Sun 12:15:03 AM 48.6320 -58.7840 86° East 563 648 37,000  Level FlightAware ADS-B
Sun 12:15:43 AM 48.6400 -58.6300 85° East 563 648 37,000  Level FlightAware ADS-B
Sun 12:16:28 AM 48.6490 -58.4530 86° East 563 648 37,000  Level FlightAware ADS-B
Sun 12:17:08 AM 48.6570 -58.2990 85° East 562 647 37,000  Level FlightAware ADS-B
Sun 12:17:48 AM 48.6640 -58.1440 86° East 561 646 37,000  Level FlightAware ADS-B
Sun 12:18:23 AM 48.6710 -58.0010 86° East 562 647 37,000 160 Level FlightAware ADS-B
Sun 12:19:03 AM 48.6780 -57.8470 86° East 563 648 37,200 706 Climbing FlightAware ADS-B
Sun 12:19:48 AM 48.6850 -57.6720 86° East 553 636 38,000 475 Climbing FlightAware ADS-B
Sun 12:20:44 AM 48.6940 -57.4630 86° East 554 638 38,000  Level FlightAware ADS-B
Sun 12:21:28 AM 48.7010 -57.2850 87° East 558 642 38,000  Level FlightAware ADS-B
Sun 12:22:08 AM 48.7110 -57.1360 84° East 560 644 38,000  Level FlightAware ADS-B
Sun 12:22:18 AM 48.7140 -57.0950 84° East 559 643 38,000  Level FlightAware ADS-B
Sun 12:23:23 AM 48.7330 -56.8390 83° East 556 640 38,000  Level FlightAware ADS-B
Sun 12:24:08 AM 48.7450 -56.6640 84° East 557 641 38,000  Level FlightAware ADS-B
Sun 12:24:48 AM 48.7550 -56.5080 84° East 560 644 38,000  Level FlightAware ADS-B
Sun 12:25:28 AM 48.7660 -56.3520 84° East 558 642 38,000  Level FlightAware ADS-B
Sun 12:26:08 AM 48.7760 -56.1960 84° East 556 640 38,000  Level FlightAware ADS-B
Sun 12:26:53 AM 48.7860 -56.0240 85° East 555 639 38,000  Level FlightAware ADS-B
Sun 12:27:33 AM 48.7960 -55.8690 84° East 552 635 38,000  Level FlightAware ADS-B
Sun 12:28:14 AM 48.8050 -55.7170 85° East 550 633 38,000  Level FlightAware ADS-B
Sun 12:28:48 AM 48.8130 -55.5810 85° East 550 633 38,000  Level FlightAware ADS-B
Sun 12:29:33 AM 48.8230 -55.4090 85° East 550 633 38,000  Level FlightAware ADS-B
Sun 12:30:14 AM 48.8310 -55.2550 85° East 549 632 38,000  Level FlightAware ADS-B
Sun 12:30:53 AM 48.8400 -55.1030 85° East 548 631 38,000  Level FlightAware ADS-B
Sun 12:31:33 AM 48.8480 -54.9500 85° East 548 631 38,000  Level FlightAware ADS-B
Sun 12:32:14 AM 48.8560 -54.7980 85° East 547 629 38,000  Level FlightAware ADS-B
Sun 12:32:58 AM 48.8640 -54.6250 86° East 545 627 38,000  Level FlightAware ADS-B
Sun 12:33:38 AM 48.8720 -54.4720 85° East 544 626 38,000  Level FlightAware ADS-B
Sun 12:34:18 AM 48.8790 -54.3190 86° East 546 628 38,000  Level FlightAware ADS-B
Sun 12:35:03 AM 48.8870 -54.1550 86° East 544 626 38,000  Level FlightAware ADS-B
Sun 12:35:43 AM 48.8930 -54.0010 87° East 541 623 38,000  Level FlightAware ADS-B
Sun 12:36:28 AM 48.9010 -53.8300 86° East 540 621 38,000  Level FlightAware ADS-B
Sun 12:37:08 AM 48.9070 -53.6750 87° East 542 624 38,000  Level FlightAware ADS-B
Sun 12:37:53 AM 48.9140 -53.5050 86° East 540 621 38,000  Level FlightAware ADS-B
Sun 12:38:33 AM 48.9200 -53.3550 86° East 539 620 38,000  Level FlightAware ADS-B
Sun 12:39:15 AM 48.9260 -53.2040 86° East 537 618 38,000  Level FlightAware ADS-B
Sun 12:39:58 AM 48.9310 -53.0490 87° East 538 619 38,000  Level FlightAware ADS-B
Sun 12:40:38 AM 48.9370 -52.8860 87° East 541 623 38,000  Level FlightAware ADS-B
Sun 12:41:23 AM 48.9430 -52.7130 87° East 542 624 38,000  Level FlightAware ADS-B
Sun 12:42:03 AM 48.9480 -52.5620 87° East 544 626 38,000  Level FlightAware ADS-B
Sun 12:42:43 AM 48.9520 -52.4120 88° East 545 627 38,000  Level FlightAware ADS-B
Sun 12:43:28 AM 48.9570 -52.2400 87° East 545 627 38,000  Level FlightAware ADS-B
Sun 12:44:08 AM 48.9620 -52.0910 87° East 544 626 38,000  Level FlightAware ADS-B
Sun 12:44:48 AM 48.9660 -51.9310 88° East 543 625 38,000  Level FlightAware ADS-B
Sun 12:45:33 AM 48.9700 -51.7580 88° East 545 627 38,000  Level FlightAware ADS-B
Sun 12:46:27 AM 48.9750 -51.5600 88° East 544 626 38,000  Level FlightAware ADS-B
Sun 12:47:12 AM 48.9790 -51.3840 88° East 544 626 38,000  Level FlightAware ADS-B
Sun 12:47:53 AM 48.9820 -51.2280 88° East 544 626 38,000  Level FlightAware ADS-B
Sun 12:49:06 AM 48.9870 -50.9740 88° East 544 626 38,000  Level FlightAware ADS-B
Sun 12:49:33 AM 48.9890 -50.8470 89° East 544 626 38,000  Level FlightAware ADS-B
Sun 12:50:19 AM 48.9920 -50.6840 88° East 38,000  Level FlightAware ADS-B
Sun 12:51:54 AM 48.9970 -50.3070 89° East 38,000  Level FlightAware ADS-B
Sun 12:53:16 AM 48.9990 -50.0120 89° East 544 626 38,000  Level FlightAware ADS-B
Sun 12:53:52 AM 48.9990 -49.8950 90° East 544 626 38,000  Level FlightAware ADS-B
Sun 12:54:28 AM 48.9990 -49.7770 90° East 544 626 38,000  Level FlightAware ADS-B
Sun 12:55:30 AM 48.9990 -49.5750 90° East 544 626 38,000  Level FlightAware ADS-B
Sun 12:56:06 AM 48.9990 -49.4580 90° East 544 626 38,000  Level FlightAware ADS-B
Sun 12:56:54 AM 48.9990 -49.3010 90° East 544 626 38,000  Level FlightAware ADS-B
Sun 12:57:30 AM 48.9990 -49.1840 90° East 544 626 38,000  Level FlightAware ADS-B
Sun 12:58:30 AM 48.9990 -48.9880 90° East 544 626 38,000  Level FlightAware ADS-B
Sun 12:59:19 AM 48.9990 -48.8280 90° East 544 626 38,000  Level FlightAware ADS-B
Sun 12:59:56 AM 48.9990 -48.7080 90° East 544 626 38,000  Level FlightAware ADS-B
Sun 01:00:32 AM 48.9990 -48.5900 90° East 544 626 38,000  Level FlightAware ADS-B
Sun 01:01:20 AM 48.9990 -48.4340 90° East 544 626 38,000  Level FlightAware ADS-B
Sun 01:01:57 AM 48.9990 -48.3130 90° East 544 626 38,000  Level FlightAware ADS-B
Sun 01:02:45 AM 48.9990 -48.1570 90° East 544 626 38,000 12 Level FlightAware ADS-B
Sun 01:05:00 AM 49.0489 -47.6644 81° East  Level FlightAware Approximate
Sun 01:06:00 AM 49.0677 -47.4387 88° East  Level FlightAware Approximate
Sun 01:07:00 AM 49.0726 -47.2171 88° East  Level FlightAware Approximate
Sun 01:08:00 AM 49.0771 -46.9954 88° East  Level FlightAware Approximate
Sun 01:09:00 AM 49.0811 -46.7737 88° East  Level FlightAware Approximate
Sun 01:10:00 AM 49.0847 -46.5520 88° East  Level FlightAware Approximate
Sun 01:11:00 AM 49.0879 -46.3302 89° East  Level FlightAware Approximate
Sun 01:12:00 AM 49.0907 -46.1084 89° East  Level FlightAware Approximate
Sun 01:13:00 AM 49.0931 -45.8866 89° East  Level FlightAware Approximate
Sun 01:14:00 AM 49.0950 -45.6648 89° East  Level FlightAware Approximate
Sun 01:15:00 AM 49.0965 -45.4429 89° East  Level FlightAware Approximate
Sun 01:16:00 AM 49.0976 -45.2211 89° East  Level FlightAware Approximate
Sun 01:17:00 AM 49.0982 -44.9992 90° East  Level FlightAware Approximate
Sun 01:18:00 AM 49.0984 -44.7773 90° East  Level FlightAware Approximate
Sun 01:19:00 AM 49.0982 -44.5555 90° East  Level FlightAware Approximate
Sun 01:20:00 AM 49.0976 -44.3336 90° East  Level FlightAware Approximate
Sun 01:21:00 AM 49.0966 -44.1117 90° East  Level FlightAware Approximate
Sun 01:22:00 AM 49.0951 -43.8899 90° East  Level FlightAware Approximate
Sun 01:23:00 AM 49.0932 -43.6680 91° East  Level FlightAware Approximate
Sun 01:24:00 AM 49.0909 -43.4462 91° East  Level FlightAware Approximate
Sun 01:25:00 AM 49.0881 -43.2244 91° East  Level FlightAware Approximate
Sun 01:26:00 AM 49.0849 -43.0027 91° East  Level FlightAware Approximate
Sun 01:27:00 AM 49.0813 -42.7809 91° East  Level FlightAware Approximate
Sun 01:28:00 AM 49.0773 -42.5592 92° East  Level FlightAware Approximate
Sun 01:29:00 AM 49.0728 -42.3375 92° East  Level FlightAware Approximate
Sun 01:30:00 AM 49.0680 -42.1159 92° East  Level FlightAware Approximate
Sun 01:31:00 AM 49.0627 -41.8943 92° East  Level FlightAware Approximate
Sun 01:32:00 AM 49.0570 -41.6728 92° East  Level FlightAware Approximate
Sun 01:33:00 AM 49.0508 -41.4513 92° East  Level FlightAware Approximate
Sun 01:34:00 AM 49.0442 -41.2299 93° East  Level FlightAware Approximate
Sun 01:35:00 AM 49.0373 -41.0085 93° East  Level FlightAware Approximate
Sun 01:36:00 AM 49.0298 -40.7873 93° East  Level FlightAware Approximate
Sun 01:37:00 AM 49.0220 -40.5660 93° East  Level FlightAware Approximate
Sun 01:38:00 AM 49.0137 -40.3449 93° East  Level FlightAware Approximate
Sun 01:39:00 AM 49.0051 -40.1238 93° East  Level FlightAware Approximate
Sun 01:40:00 AM 49.0138 -39.9049 77° East  Level FlightAware Approximate
Sun 01:41:00 AM 49.0450 -39.6885 78° East  Level FlightAware Approximate
Sun 01:42:00 AM 49.0757 -39.4718 78° East  Level FlightAware Approximate
Sun 01:43:00 AM 49.1061 -39.2548 78° East  Level FlightAware Approximate
Sun 01:44:00 AM 49.1360 -39.0376 78° East  Level FlightAware Approximate
Sun 01:45:00 AM 49.1656 -38.8201 78° East  Level FlightAware Approximate
Sun 01:46:00 AM 49.1947 -38.6024 78° East  Level FlightAware Approximate
Sun 01:47:00 AM 49.2234 -38.3844 79° East  Level FlightAware Approximate
Sun 01:48:00 AM 49.2517 -38.1662 79° East  Level FlightAware Approximate
Sun 01:49:00 AM 49.2796 -37.9477 79° East  Level FlightAware Approximate
Sun 01:50:00 AM 49.3071 -37.7290 79° East  Level FlightAware Approximate
Sun 01:51:00 AM 49.3341 -37.5100 79° East  Level FlightAware Approximate
Sun 01:52:00 AM 49.3608 -37.2908 79° East  Level FlightAware Approximate
Sun 01:53:00 AM 49.3870 -37.0714 80° East  Level FlightAware Approximate
Sun 01:54:00 AM 49.4128 -36.8517 80° East  Level FlightAware Approximate
Sun 01:55:00 AM 49.4382 -36.6318 80° East  Level FlightAware Approximate
Sun 01:56:00 AM 49.4632 -36.4116 80° East  Level FlightAware Approximate
Sun 01:57:00 AM 49.4878 -36.1913 80° East  Level FlightAware Approximate
Sun 01:58:00 AM 49.5119 -35.9707 80° East  Level FlightAware Approximate
Sun 01:59:00 AM 49.5357 -35.7499 81° East  Level FlightAware Approximate
Sun 02:00:00 AM 49.5590 -35.5289 81° East  Level FlightAware Approximate
Sun 02:01:00 AM 49.5819 -35.3077 81° East  Level FlightAware Approximate
Sun 02:02:00 AM 49.6043 -35.0863 81° East  Level FlightAware Approximate
Sun 02:03:00 AM 49.6264 -34.8646 81° East  Level FlightAware Approximate
Sun 02:04:00 AM 49.6480 -34.6428 81° East  Level FlightAware Approximate
Sun 02:05:00 AM 49.6692 -34.4208 82° East  Level FlightAware Approximate
Sun 02:06:00 AM 49.6899 -34.1986 82° East  Level FlightAware Approximate
Sun 02:07:00 AM 49.7103 -33.9762 82° East  Level FlightAware Approximate
Sun 02:08:00 AM 49.7302 -33.7536 82° East  Level FlightAware Approximate
Sun 02:09:00 AM 49.7497 -33.5308 82° East  Level FlightAware Approximate
Sun 02:10:00 AM 49.7688 -33.3079 82° East  Level FlightAware Approximate
Sun 02:11:00 AM 49.7874 -33.0848 83° East  Level FlightAware Approximate
Sun 02:12:00 AM 49.8056 -32.8615 83° East  Level FlightAware Approximate
Sun 02:13:00 AM 49.8234 -32.6381 83° East  Level FlightAware Approximate
Sun 02:14:00 AM 49.8407 -32.4145 83° East  Level FlightAware Approximate
Sun 02:15:00 AM 49.8577 -32.1907 83° East  Level FlightAware Approximate
Sun 02:16:00 AM 49.8741 -31.9668 83° East  Level FlightAware Approximate
Sun 02:17:00 AM 49.8902 -31.7427 84° East  Level FlightAware Approximate
Sun 02:18:00 AM 49.9058 -31.5185 84° East  Level FlightAware Approximate
Sun 02:19:00 AM 49.9210 -31.2941 84° East  Level FlightAware Approximate
Sun 02:20:00 AM 49.9358 -31.0696 84° East  Level FlightAware Approximate
Sun 02:21:00 AM 49.9501 -30.8449 84° East  Level FlightAware Approximate
Sun 02:22:00 AM 49.9640 -30.6202 84° East  Level FlightAware Approximate
Sun 02:23:00 AM 49.9774 -30.3953 85° East  Level FlightAware Approximate
Sun 02:24:00 AM 49.9904 -30.1703 85° East  Level FlightAware Approximate
Sun 02:25:00 AM 50.0024 -29.9450 86° East  Level FlightAware Approximate
Sun 02:26:00 AM 50.0117 -29.7195 86° East  Level FlightAware Approximate
Sun 02:27:00 AM 50.0207 -29.4938 86° East  Level FlightAware Approximate
Sun 02:28:00 AM 50.0292 -29.2681 87° East  Level FlightAware Approximate
Sun 02:29:00 AM 50.0373 -29.0423 87° East  Level FlightAware Approximate
Sun 02:30:00 AM 50.0449 -28.8164 87° East  Level FlightAware Approximate
Sun 02:31:00 AM 50.0521 -28.5904 87° East  Level FlightAware Approximate
Sun 02:32:00 AM 50.0589 -28.3644 87° East  Level FlightAware Approximate
Sun 02:33:00 AM 50.0652 -28.1383 87° East  Level FlightAware Approximate
Sun 02:34:00 AM 50.0711 -27.9122 88° East  Level FlightAware Approximate
Sun 02:35:00 AM 50.0765 -27.6860 88° East  Level FlightAware Approximate
Sun 02:36:00 AM 50.0815 -27.4597 88° East  Level FlightAware Approximate
Sun 02:37:00 AM 50.0861 -27.2334 88° East  Level FlightAware Approximate
Sun 02:38:00 AM 50.0902 -27.0071 88° East  Level FlightAware Approximate
Sun 02:39:00 AM 50.0939 -26.7807 88° East  Level FlightAware Approximate
Sun 02:40:00 AM 50.0971 -26.5543 89° East  Level FlightAware Approximate
Sun 02:41:00 AM 50.0999 -26.3279 89° East  Level FlightAware Approximate
Sun 02:42:00 AM 50.1023 -26.1014 89° East  Level FlightAware Approximate
Sun 02:43:00 AM 50.1042 -25.8750 89° East  Level FlightAware Approximate
Sun 02:44:00 AM 50.1057 -25.6485 89° East  Level FlightAware Approximate
Sun 02:45:00 AM 50.1067 -25.4220 90° East  Level FlightAware Approximate
Sun 02:46:00 AM 50.1073 -25.1955 90° East  Level FlightAware Approximate
Sun 02:47:00 AM 50.1075 -24.9690 90° East  Level FlightAware Approximate
Sun 02:48:00 AM 50.1072 -24.7425 90° East  Level FlightAware Approximate
Sun 02:49:00 AM 50.1065 -24.5159 90° East  Level FlightAware Approximate
Sun 02:50:00 AM 50.1053 -24.2894 90° East  Level FlightAware Approximate
Sun 02:51:00 AM 50.1037 -24.0630 91° East  Level FlightAware Approximate
Sun 02:52:00 AM 50.1017 -23.8429 91° East  Level FlightAware Approximate
Sun 02:53:00 AM 50.0994 -23.6229 91° East  Level FlightAware Approximate
Sun 02:54:00 AM 50.0965 -23.4030 91° East  Level FlightAware Approximate
Sun 02:55:00 AM 50.0933 -23.1830 91° East  Level FlightAware Approximate
Sun 02:56:00 AM 50.0897 -22.9631 91° East  Level FlightAware Approximate
Sun 02:57:00 AM 50.0856 -22.7432 92° East  Level FlightAware Approximate
Sun 02:58:00 AM 50.0812 -22.5234 92° East  Level FlightAware Approximate
Sun 02:59:00 AM 50.0763 -22.3036 92° East  Level FlightAware Approximate
Sun 03:00:00 AM 50.0710 -22.0838 92° East  Level FlightAware Approximate
Sun 03:01:00 AM 50.0653 -21.8641 92° East  Level FlightAware Approximate
Sun 03:02:00 AM 50.0591 -21.6445 92° East  Level FlightAware Approximate
Sun 03:03:00 AM 50.0526 -21.4249 93° East  Level FlightAware Approximate
Sun 03:04:00 AM 50.0456 -21.2053 93° East  Level FlightAware Approximate
Sun 03:05:00 AM 50.0383 -20.9859 93° East  Level FlightAware Approximate
Sun 03:06:00 AM 50.0305 -20.7665 93° East  Level FlightAware Approximate
Sun 03:07:00 AM 50.0223 -20.5472 93° East  Level FlightAware Approximate
Sun 03:08:00 AM 50.0137 -20.3279 93° East  Level FlightAware Approximate
Sun 03:09:00 AM 50.0046 -20.1088 94° East  Level FlightAware Approximate
Sun 03:10:00 AM 50.0009 -19.8894 89° East  Level FlightAware Approximate
Sun 03:11:00 AM 50.0022 -19.6698 89° East  Level FlightAware Approximate
Sun 03:12:00 AM 50.0032 -19.4502 90° East  Level FlightAware Approximate
Sun 03:13:00 AM 50.0037 -19.2306 90° East  Level FlightAware Approximate
Sun 03:14:00 AM 50.0039 -19.0111 90° East  Level FlightAware Approximate
Sun 03:15:00 AM 50.0036 -18.7915 90° East  Level FlightAware Approximate
Sun 03:16:00 AM 50.0029 -18.5719 90° East  Level FlightAware Approximate
Sun 03:17:00 AM 50.0018 -18.3523 90° East  Level FlightAware Approximate
Sun 03:18:00 AM 50.0003 -18.1327 91° East  Level FlightAware Approximate
Sun 03:19:00 AM 49.9983 -17.9132 91° East  Level FlightAware Approximate
Sun 03:20:00 AM 49.9960 -17.6937 91° East  Level FlightAware Approximate
Sun 03:21:00 AM 49.9932 -17.4742 91° East  Level FlightAware Approximate
Sun 03:22:00 AM 49.9900 -17.2547 91° East  Level FlightAware Approximate
Sun 03:23:00 AM 49.9864 -17.0352 91° East  Level FlightAware Approximate
Sun 03:24:00 AM 49.9824 -16.8158 92° East  Level FlightAware Approximate
Sun 03:25:00 AM 49.9780 -16.5965 92° East  Level FlightAware Approximate
Sun 03:26:00 AM 49.9732 -16.3771 92° East  Level FlightAware Approximate
Sun 03:27:00 AM 49.9679 -16.1578 92° East  Level FlightAware Approximate
Sun 03:28:00 AM 49.9623 -15.9386 92° East  Level FlightAware Approximate
Sun 03:29:00 AM 49.9562 -15.7194 92° East  Level FlightAware Approximate
Sun 03:30:00 AM 49.9497 -15.5003 93° East  Level FlightAware Approximate
Sun 03:31:00 AM 49.9428 -15.2812 93° East  Level FlightAware Approximate
Sun 03:32:00 AM 49.9355 -15.0622 93° East  Level FlightAware Approximate
Sun 03:33:00 AM 49.9283 -14.8433 93° East  Level FlightAware Approximate
Sun 03:34:00 AM 49.9209 -14.6243 93° East  Level FlightAware Approximate
Sun 03:35:00 AM 49.9132 -14.4055 93° East  Level FlightAware Approximate
Sun 03:36:00 AM 49.9049 -14.1867 93° East  Level FlightAware Approximate
Sun 03:37:00 AM 49.8963 -13.9680 93° East  Level FlightAware Approximate
Sun 03:38:00 AM 49.8873 -13.7493 94° East  Level FlightAware Approximate
Sun 03:39:00 AM 49.8779 -13.5308 94° East  Level FlightAware Approximate
Sun 03:40:00 AM 49.8680 -13.3123 94° East  Level FlightAware Approximate
Sun 03:41:00 AM 49.8578 -13.0940 94° East  Level FlightAware Approximate
Sun 03:42:00 AM 49.8471 -12.8757 94° East  Level FlightAware Approximate
Sun 03:43:00 AM 49.8361 -12.6575 94° East  Level FlightAware Approximate
Sun 03:44:00 AM 49.8246 -12.4394 95° East  Level FlightAware Approximate
Sun 03:45:00 AM 49.8127 -12.2215 95° East  Level FlightAware Approximate
Sun 03:46:00 AM 49.8004 -12.0036 95° East  Level FlightAware Approximate
Sun 03:47:00 AM 49.7877 -11.7858 95° East  Level FlightAware Approximate
Sun 03:48:00 AM 49.7746 -11.5682 95° East  Level FlightAware Approximate
Sun 03:49:00 AM 49.7611 -11.3507 95° East  Level FlightAware Approximate
Sun 03:50:00 AM 49.7471 -11.1333 96° East  Level FlightAware Approximate
Sun 03:51:00 AM 49.7328 -10.9161 96° East  Level FlightAware Approximate
Sun 03:52:00 AM 49.7181 -10.6989 96° East  Level FlightAware Approximate
Sun 03:52:58 AM 49.7020 -10.1760 96° East 500 575 40,000  Level FlightAware ADS-B
Sun 03:53:00 AM 49.7029 -10.4819 96° East  Level FlightAware Approximate
Sun 03:53:40 AM 49.6890 -10.0270 98° East 502 578 40,000  Level FlightAware ADS-B
Sun 03:54:26 AM 49.6750 -9.8630 97° East 504 580 40,000  Level FlightAware ADS-B
Sun 03:55:07 AM 49.6630 -9.7200 97° East 505 581 40,000  Level FlightAware ADS-B
Sun 03:55:47 AM 49.6510 -9.5790 97° East 502 578 40,000  Level FlightAware ADS-B
Sun 03:56:31 AM 49.6370 -9.4230 98° East 500 575 40,000  Level FlightAware ADS-B
Sun 03:57:11 AM 49.6240 -9.2800 98° East 498 573 40,000  Level FlightAware ADS-B
Sun 03:57:53 AM 49.6110 -9.1360 98° East 497 572 40,000  Level FlightAware ADS-B
Sun 03:58:36 AM 49.5960 -8.9820 98° East 497 572 40,000  Level FlightAware ADS-B
Sun 03:59:12 AM 49.5840 -8.8550 98° East 499 574 40,000  Level FlightAware ADS-B
Sun 03:59:52 AM 49.5710 -8.7140 98° East 500 575 40,000  Level FlightAware ADS-B
Sun 04:00:34 AM 49.5560 -8.5660 99° East 501 577 40,000  Level FlightAware ADS-B
Sun 04:01:16 AM 49.5430 -8.4290 98° East 500 575 40,000  Level FlightAware ADS-B
Sun 04:02:00 AM 49.5270 -8.2650 98° East 500 575 40,000  Level FlightAware ADS-B
Sun 04:02:40 AM 49.5130 -8.1260 99° East 498 573 40,000  Level FlightAware ADS-B
Sun 04:03:24 AM 49.4990 -7.9760 98° East 499 574 40,000  Level FlightAware ADS-B
Sun 04:04:04 AM 49.4960 -7.8290 92° East 500 575 40,000  Level FlightAware ADS-B
Sun 04:04:48 AM 49.4930 -7.6720 92° East 497 572 40,000  Level FlightAware ADS-B
Sun 04:05:20 AM 49.4910 -7.5590 92° East 496 571 40,000  Level FlightAware ADS-B
Sun 04:06:05 AM 49.4870 -7.4040 92° East 496 571 40,000  Level FlightAware ADS-B
Sun 04:06:45 AM 49.4830 -7.2640 92° East 494 568 40,000  Level FlightAware ADS-B
Sun 04:07:21 AM 49.4790 -7.1370 93° East 495 570 40,000  Level FlightAware ADS-B
Sun 04:08:04 AM 49.4750 -6.9860 92° East 495 570 40,000  Level FlightAware ADS-B
Sun 04:08:44 AM 49.4710 -6.8460 92° East 494 568 40,000  Level FlightAware ADS-B
Sun 04:09:28 AM 49.4660 -6.6920 93° East 495 570 40,000  Level FlightAware ADS-B
Sun 04:10:08 AM 49.4610 -6.5520 93° East 496 571 40,000  Level FlightAware ADS-B
Sun 04:10:52 AM 49.4560 -6.3990 93° East 496 571 40,000  Level FlightAware ADS-B
Sun 04:13:00 AM 49.4385 -5.9367 93° East  Level FlightAware Approximate
Sun 04:13:44 AM 49.4350 -5.8420 93° East 497 572 40,000  Level FlightAware ADS-B
Sun 04:14:26 AM 49.4330 -5.6530 91° East 500 575 40,000  Level FlightAware ADS-B
Sun 04:15:06 AM 49.4360 -5.5070 88° East 501 577 40,000  Level FlightAware ADS-B
Sun 04:15:51 AM 49.4380 -5.3460 89° East 497 572 40,000  Level FlightAware ADS-B
Sun 04:16:31 AM 49.4390 -5.2040 89° East 494 568 40,000  Level FlightAware ADS-B
Sun 04:17:11 AM 49.4400 -5.0660 89° East 492 566 40,000  Level FlightAware ADS-B
Sun 04:17:57 AM 49.4400 -4.9050 90° East 491 565 40,000  Level FlightAware ADS-B
Sun 04:18:38 AM 49.4410 -4.7650 89° East 494 568 40,000  Level FlightAware ADS-B
Sun 04:19:22 AM 49.4410 -4.6070 90° East 494 568 40,000  Level FlightAware ADS-B
Sun 04:20:02 AM 49.4410 -4.4730 90° East 493 567 40,000  Level FlightAware ADS-B
Sun 04:20:42 AM 49.4410 -4.3320 90° East 493 567 40,000  Level FlightAware ADS-B
Sun 04:21:22 AM 49.4410 -4.2000 90° East 494 568 40,000  Level FlightAware ADS-B
Sun 04:22:02 AM 49.4400 -4.0480 91° East 492 566 40,000  Level FlightAware ADS-B
Sun 04:22:42 AM 49.4400 -3.9100 90° East 491 565 40,000  Level FlightAware ADS-B
Sun 04:23:22 AM 49.4390 -3.7730 91° East 489 563 40,000  Level FlightAware ADS-B
Sun 04:24:10 AM 49.4380 -3.6110 90° East 489 563 40,000  Level FlightAware ADS-B
Sun 04:24:48 AM 49.4370 -3.4810 91° East 491 565 40,000  Level FlightAware ADS-B
Sun 04:25:23 AM 49.4360 -3.3620 91° East 491 565 40,000  Level FlightAware ADS-B
Sun 04:26:03 AM 49.4340 -3.2140 91° East 490 564 40,000  Level FlightAware ADS-B
Sun 04:26:48 AM 49.4330 -3.0650 91° East 490 564 40,000  Level FlightAware ADS-B
Sun 04:27:23 AM 49.4310 -2.9370 91° East 489 563 40,000  Level FlightAware ADS-B
Sun 04:28:03 AM 49.4290 -2.7990 91° East 488 562 40,000  Level FlightAware ADS-B
Sun 04:28:43 AM 49.4270 -2.6650 91° East 488 562 40,000  Level FlightAware ADS-B
Sun 04:29:23 AM 49.4250 -2.5210 91° East 489 563 40,000  Level FlightAware ADS-B
Sun 04:30:08 AM 49.4220 -2.3690 92° East 488 562 40,000  Level FlightAware ADS-B
Sun 04:31:01 AM 49.4190 -2.1940 91° East 486 559 40,000  Level FlightAware ADS-B
Sun 04:31:38 AM 49.4170 -2.0750 91° East 486 559 40,000  Level FlightAware ADS-B
Sun 04:32:24 AM 49.4130 -1.9000 92° East 487 560 40,000 -184 Level FlightAware ADS-B
Sun 04:33:16 AM 49.4090 -1.7360 92° East 487 560 39,700 -645 Descending FlightAware ADS-B
Sun 04:33:57 AM 49.4060 -1.6020 92° East 491 565 39,000 -1,600 Descending FlightAware ADS-B
Sun 04:34:46 AM 49.4010 -1.4220 92° East 487 560 37,300 -2,211 Descending FlightAware ADS-B
Sun 04:35:32 AM 49.3960 -1.2470 92° East 480 552 35,500 -1,814 Descending FlightAware ADS-B
Sun 04:36:12 AM 49.3930 -1.1150 92° East 464 534 34,700 -1,184 Descending FlightAware ADS-B
Sun 04:36:48 AM 49.3890 -1.0030 93° East 448 516 34,000 -1,425 Descending FlightAware ADS-B
Sun 04:37:32 AM 49.3850 -0.8650 92° East 435 501 32,800 -1,676 Descending FlightAware ADS-B
Sun 04:37:56 AM 49.3830 -0.7900 92° East 432 497 32,100 -1,826 Descending FlightAware ADS-B
Sun 04:39:04 AM 49.3760 -0.5840 93° East 422 486 30,000 -1,738 Descending FlightAware ADS-B
Sun 04:39:43 AM 49.3720 -0.4690 93° East 414 476 29,000 -1,500 Descending FlightAware ADS-B
Sun 04:40:24 AM 49.3680 -0.3490 93° East 408 470 28,000 -874 Descending FlightAware ADS-B
Sun 04:41:26 AM 49.3580 -0.1830 95° East 378 435 27,500 -667 Descending FlightAware ADS-B
Sun 04:42:12 AM 49.3520 -0.0600 94° East 359 413 26,800 -1,186 Descending FlightAware ADS-B
Sun 04:42:52 AM 49.3490 0.0430 93° East 358 412 25,800 -1,500 Descending FlightAware ADS-B
Sun 04:43:28 AM 49.3460 0.1320 93° East 355 409 24,900 -1,342 Descending FlightAware ADS-B
Sun 04:44:08 AM 49.3440 0.2300 92° East 347 399 24,100 -1,286 Descending FlightAware ADS-B
Sun 04:44:52 AM 49.3410 0.3390 92° East 343 395 23,100 -1,378 Descending FlightAware ADS-B
Sun 04:45:22 AM 49.3390 0.4130 92° East 339 390 22,400 -1,286 Descending FlightAware ADS-B
Sun 04:46:02 AM 49.3360 0.5080 93° East 336 387 21,600 -1,297 Descending FlightAware ADS-B
Sun 04:46:36 AM 49.3340 0.5870 92° East 334 384 20,800 -1,291 Descending FlightAware ADS-B
Sun 04:47:21 AM 49.3310 0.6920 92° East 328 377 19,900 -1,187 Descending FlightAware ADS-B
Sun 04:48:07 AM 49.3270 0.7950 93° East 319 367 19,000 -1,055 Descending FlightAware ADS-B
Sun 04:48:52 AM 49.3240 0.8910 93° East 283 326 18,300 -1,256 Descending FlightAware ADS-B
Sun 04:49:33 AM 49.3220 0.9630 92° East 276 318 17,200 -2,100 Descending FlightAware ADS-B
Sun 04:50:12 AM 49.3190 1.0480 93° East 273 314 15,500 -2,357 Descending FlightAware ADS-B
Sun 04:50:57 AM 49.3160 1.1290 93° East 263 303 13,900 -2,047 Descending FlightAware ADS-B
Sun 04:51:37 AM 49.3140 1.2040 92° East 259 298 12,600 -1,624 Descending FlightAware ADS-B
Sun 04:52:22 AM 49.3110 1.2890 93° East 258 297 11,600 -1,129 Descending FlightAware ADS-B
Sun 04:53:02 AM 49.3080 1.3530 94° East 255 293 11,000 -1,606 Descending FlightAware ADS-B
Sun 04:53:33 AM 49.3060 1.4130 93° East 281 323 9,700 -2,267 Descending FlightAware ADS-B
Sun 04:53:47 AM 49.3050 1.4430 93° East 284 327 9,300 -1,469 Descending FlightAware ADS-B
Sun 04:54:22 AM 49.3020 1.5180 93° East 283 326 8,500 -1,200 Descending FlightAware ADS-B
Sun 04:54:47 AM 49.3000 1.5690 93° East 280 322 8,100 -600 Descending FlightAware ADS-B
Sun 04:55:12 AM 49.2980 1.6180 94° East 278 320 8,000 -102 Descending FlightAware ADS-B
Sun 04:55:46 AM 49.2950 1.6880 94° East 280 322 8,000  Level FlightAware ADS-B
Sun 04:56:07 AM 49.2930 1.7260 95° East 280 322 8,000  Level FlightAware ADS-B
Sun 04:56:26 AM 49.2810 1.7610 118° Southeast 271 312 8,000  Level FlightAware ADS-B
Sun 04:56:41 AM 49.2650 1.7760 149° Southeast 267 307 8,000  Level FlightAware ADS-B
Sun 04:57:07 AM 49.2370 1.7940 157° South 267 307 8,000  Level FlightAware ADS-B
Sun 04:57:42 AM 49.1940 1.8210 158° South 259 298 8,000  Level FlightAware ADS-B
Sun 04:58:07 AM 49.1660 1.8300 168° South 245 282 8,000  Level FlightAware ADS-B
Sun 04:58:22 AM 49.1510 1.8350 168° South 232 267 8,000  Level FlightAware ADS-B
Sun 04:58:52 AM 49.1170 1.8440 170° South 232 267 8,000  Level FlightAware ADS-B
Sun 04:59:22 AM 49.0840 1.8540 169° South 231 266 8,000  Level FlightAware ADS-B
Sun 04:59:47 AM 49.0580 1.8610 170° South 230 265 8,000 -120 Level FlightAware ADS-B
Sun 05:00:12 AM 49.0310 1.8690 169° South 238 274 7,900 -343 Descending FlightAware ADS-B
Sun 05:00:22 AM 49.0200 1.8770 155° Southeast 237 273 7,800 -1,200 Descending FlightAware ADS-B
Sun 05:00:37 AM 49.0100 1.8960 129° Southeast 235 270 7,400 -1,440 Descending FlightAware ADS-B
Sun 05:00:47 AM 49.0050 1.9110 117° Southeast 240 276 7,200 -900 Descending FlightAware ADS-B
Sun 05:01:17 AM 48.9880 1.9550 120° Southeast 237 273 6,800 -700 Descending FlightAware ADS-B
Sun 05:01:47 AM 48.9730 1.9980 118° Southeast 223 257 6,500 -545 Descending FlightAware ADS-B
Sun 05:02:12 AM 48.9640 2.0330 111° Southeast 214 246 6,300 -545 Descending FlightAware ADS-B
Sun 05:02:42 AM 48.9660 2.0770 86° East 194 223 6,000 -667 Descending FlightAware ADS-B
Sun 05:02:57 AM 48.9670 2.0970 86° East 193 222 5,800 -1,050 Descending FlightAware ADS-B
Sun 05:03:22 AM 48.9690 2.1300 85° East 193 222 5,300 -982 Descending FlightAware ADS-B
Sun 05:03:52 AM 48.9710 2.1710 86° East 188 216 4,900 -522 Descending FlightAware ADS-B
Sun 05:04:08 AM 48.9720 2.1910 86° East 189 217 4,900 -514 Level FlightAware ADS-B
Sun 05:04:27 AM 48.9740 2.2160 83° East 192 221 4,600 -1,077 Descending FlightAware ADS-B
Sun 05:04:47 AM 48.9750 2.2450 87° East 190 219 4,200 -1,091 Descending FlightAware ADS-B
Sun 05:05:11 AM 48.9770 2.2770 85° East 181 208 3,800 -960 Descending FlightAware ADS-B
Sun 05:05:37 AM 48.9790 2.3080 84° East 173 199 3,400 -840 Descending FlightAware ADS-B
Sun 05:06:01 AM 48.9810 2.3380 84° East 171 197 3,100 -873 Descending FlightAware ADS-B
Sun 05:06:32 AM 48.9820 2.3740 88° East 165 190 2,600 -885 Descending FlightAware ADS-B
Sun 05:07:02 AM 48.9840 2.4080 85° East 158 182 2,200 -764 Descending FlightAware ADS-B
Sun 05:07:27 AM 48.9860 2.4350 84° East 157 181 1,900 -800 Descending FlightAware ADS-B
Sun 05:07:47 AM 48.9870 2.4560 86° East 153 176 1,600 -764 Descending FlightAware ADS-B
Sun 05:08:22 AM 48.9890 2.4920 85° East 135 155 1,200 -700 Descending FlightAware ADS-B
Sun 05:08:47 AM 48.9900 2.5160 86° East 139 160 900 -720 Descending FlightAware ADS-B
Sun 05:09:12 AM 48.9920 2.5410 83° East 136 157 600 -764 Descending FlightAware ADS-B
Sun 05:09:42 AM 48.9930 2.5670 87° East 137 158 200 -800 Descending FlightAware ADS-B
Sun 05:10:07 AM 48.9940 2.5880 86° East 60 69 -480 Descending FlightAware ADS-B
Sun 05:10:22 AM 48.9940 2.5920 90° East 20 23  Level FlightAware ADS-B
Sun 05:10:52 AM 48.9960 2.5960 53° Northeast 11 13  Level FlightAware ADS-B
Sun 05:13:00 AM 49.0000 2.5333 102° East  Level FlightAware Approximate
Sun 05:14:00 AM 49.0128 2.5500 102° East  Level Estimated
Sun 05:15:00 AM 49.0128 2.5500 102° East  Level Estimated
Sun 05:16:00 AM 49.0128 2.5500 102° East  Level Estimated
Sun 05:17:00 AM 49.0128 2.5500 102° East  Level Estimated
Sun 05:18:00 AM 49.0128 2.5500 102° East  Level Estimated
Sun 05:19:00 AM 49.0128 2.5500 102° East  Level Estimated
Sun 05:20:00 AM 49.0128 2.5500 102° East  Level Estimated
Sun 05:21:00 AM 49.0128 2.5500 102° East  Level Estimated
Sun 05:22:00 AM 49.0128 2.5500 102° East  Level Estimated
Sun 05:23:00 AM 49.0128 2.5500 102° East  Level Estimated

Login

Don't have an account? Register now (free) for customized features, flight alerts, and more!